首页
METAR-TAF:

METAR-TAF

机场 :

贝鲁特, 黎巴嫩

纬度: 33-49N, 经度: 035-29E, 海拔: 29米

当前天气观测

该预报发布于46分钟前的01:00 UTC
风速22节,风向西,有时为34节阵风
温度 13°C
湿度 67%
气压 1000 hPa
能見度: 8000
少量云层高于2000英尺, 积雨云.
多云层高于2600英尺
雷暴, 雨

METAR: OLBA 190100Z 26022G34KT 8000 TSRA FEW020CB BKN026 13/07 Q1000 NOSIG

时间: 03:46 (01:46 UTC)

预报

该预报发布于3小时和46分钟前的22:00 UTC
预报有效从19日的 00点(UTC)到 20日的 06点(UTC)
风速25节,风向,有时为45节阵风
能見度: 8000
少量云层高于2300英尺, 塔状积云.
多云层高于2500英尺
短暂存在
从 19日的 00点(UTC)到 19日的 06点(UTC)
风速30节,风向南转西南,有时为60节阵风
能見度: 5000
少量云层高于1800英尺, 积雨云.
多云层高于2300英尺
成为
从 19日的 06点(UTC)到 19日的 08点(UTC)
风速18节,风向西转西南
多云层高于2500英尺
几率 40% :
短暂存在
从 19日的 06点(UTC)到 19日的 14点(UTC)
风速20节,风向西转西南,有时为30节阵风
能見度: 7000
成为
从 19日的 18点(UTC)到 19日的 20点(UTC)
风速8节,风向南转南东
能见度10公里或以上
散云层高于3000英尺

TAF: OLBA 182200Z 1900/2006 17025G45KT 8000 RA FEW023TCU BKN025 TEMPO 1900/1906 21030G60KT 5000 TSSHRA FEW018CB BKN023 BECMG 1906/1908 24018KT BKN025 PROB40 TEMPO 1906/1914 24020G30KT 7000 RA BECMG 1918/1920 15008KT 9999 SCT030

超过4000个机场的气象观测和天气预报(METAR&TAF报告)。

可查询的气象台以黄色和红色小点在地图上表示。

将鼠标移到小点上方,可查看气象台名称。

然后点击查看天气观测和预报。

如需切换地图:点击带黑十字的绿色按钮放大地图;点击带横线的绿色按钮缩小地图;或者点击绿色箭头查看邻近地区的地图。


METAR-TAF: